sensor_id;sensor_type;location;lat;lon;timestamp;P1;durP1;ratioP1;P2;durP2;ratioP2
59169;SDS011;52474;52.236;5.114;2022-10-20T00:01:19;12.15;;;5.47;;
59169;SDS011;52474;52.236;5.114;2022-10-20T00:03:47;9.90;;;5.38;;
59169;SDS011;52474;52.236;5.114;2022-10-20T00:06:15;14.15;;;5.82;;
59169;SDS011;52474;52.236;5.114;2022-10-20T00:08:43;10.80;;;5.63;;
59169;SDS011;52474;52.236;5.114;2022-10-20T00:11:10;9.98;;;5.40;;
59169;SDS011;52474;52.236;5.114;2022-10-20T00:13:38;14.27;;;6.03;;
59169;SDS011;52474;52.236;5.114;2022-10-20T00:16:06;9.40;;;5.18;;
59169;SDS011;52474;52.236;5.114;2022-10-20T00:18:32;8.38;;;5.35;;
59169;SDS011;52474;52.236;5.114;2022-10-20T00:20:58;8.25;;;5.68;;
59169;SDS011;52474;52.236;5.114;2022-10-20T00:23:24;9.95;;;5.30;;
59169;SDS011;52474;52.236;5.114;2022-10-20T00:26:00;9.93;;;5.35;;
59169;SDS011;52474;52.236;5.114;2022-10-20T00:28:30;11.88;;;6.20;;
59169;SDS011;52474;52.236;5.114;2022-10-20T00:30:56;9.25;;;6.03;;
59169;SDS011;52474;52.236;5.114;2022-10-20T00:33:22;12.80;;;6.85;;
59169;SDS011;52474;52.236;5.114;2022-10-20T00:35:49;10.77;;;5.72;;
59169;SDS011;52474;52.236;5.114;2022-10-20T00:38:15;8.88;;;5.97;;
59169;SDS011;52474;52.236;5.114;2022-10-20T00:40:41;11.65;;;6.13;;
59169;SDS011;52474;52.236;5.114;2022-10-20T00:43:13;10.48;;;5.90;;
59169;SDS011;52474;52.236;5.114;2022-10-20T00:45:41;13.32;;;6.25;;
59169;SDS011;52474;52.236;5.114;2022-10-20T00:48:13;10.70;;;5.80;;
59169;SDS011;52474;52.236;5.114;2022-10-20T00:50:42;12.75;;;6.57;;
59169;SDS011;52474;52.236;5.114;2022-10-20T00:53:13;11.63;;;6.22;;
59169;SDS011;52474;52.236;5.114;2022-10-20T00:55:42;10.77;;;6.03;;
59169;SDS011;52474;52.236;5.114;2022-10-20T00:58:10;12.73;;;5.97;;
59169;SDS011;52474;52.236;5.114;2022-10-20T01:00:40;9.70;;;5.75;;
59169;SDS011;52474;52.236;5.114;2022-10-20T01:03:09;12.00;;;5.78;;
59169;SDS011;52474;52.236;5.114;2022-10-20T01:05:39;11.57;;;6.20;;
59169;SDS011;52474;52.236;5.114;2022-10-20T01:08:05;9.43;;;5.38;;
59169;SDS011;52474;52.236;5.114;2022-10-20T01:10:32;9.00;;;5.80;;
59169;SDS011;52474;52.236;5.114;2022-10-20T01:16:02;10.15;;;6.72;;
59169;SDS011;52474;52.236;5.114;2022-10-20T01:18:52;11.55;;;6.55;;
59169;SDS011;52474;52.236;5.114;2022-10-20T01:21:55;10.60;;;6.53;;
59169;SDS011;52474;52.236;5.114;2022-10-20T01:32:54;12.90;;;6.78;;
59169;SDS011;52474;52.236;5.114;2022-10-20T01:38:40;13.32;;;6.13;;
59169;SDS011;52474;52.236;5.114;2022-10-20T01:43:48;11.05;;;5.97;;
59169;SDS011;52474;52.236;5.114;2022-10-20T01:46:16;9.75;;;6.38;;
59169;SDS011;52474;52.236;5.114;2022-10-20T01:48:46;11.27;;;6.60;;
59169;SDS011;52474;52.236;5.114;2022-10-20T01:51:12;12.55;;;6.78;;
59169;SDS011;52474;52.236;5.114;2022-10-20T01:53:38;12.45;;;5.90;;
59169;SDS011;52474;52.236;5.114;2022-10-20T01:56:04;9.43;;;5.80;;
59169;SDS011;52474;52.236;5.114;2022-10-20T01:58:41;16.05;;;6.50;;
59169;SDS011;52474;52.236;5.114;2022-10-20T02:03:57;12.02;;;6.75;;
59169;SDS011;52474;52.236;5.114;2022-10-20T02:06:39;13.02;;;7.72;;
59169;SDS011;52474;52.236;5.114;2022-10-20T02:09:20;11.60;;;7.43;;
59169;SDS011;52474;52.236;5.114;2022-10-20T02:12:15;11.38;;;6.97;;
59169;SDS011;52474;52.236;5.114;2022-10-20T02:14:45;10.68;;;6.50;;
59169;SDS011;52474;52.236;5.114;2022-10-20T02:17:12;13.30;;;6.75;;
59169;SDS011;52474;52.236;5.114;2022-10-20T02:19:41;12.90;;;6.65;;
59169;SDS011;52474;52.236;5.114;2022-10-20T02:22:10;12.75;;;7.18;;
59169;SDS011;52474;52.236;5.114;2022-10-20T02:24:39;14.45;;;7.15;;
59169;SDS011;52474;52.236;5.114;2022-10-20T02:27:14;11.73;;;7.07;;
59169;SDS011;52474;52.236;5.114;2022-10-20T02:29:55;14.05;;;7.10;;
59169;SDS011;52474;52.236;5.114;2022-10-20T02:32:26;13.90;;;6.40;;
59169;SDS011;52474;52.236;5.114;2022-10-20T02:34:54;12.32;;;7.53;;
59169;SDS011;52474;52.236;5.114;2022-10-20T02:37:19;15.63;;;7.45;;
59169;SDS011;52474;52.236;5.114;2022-10-20T02:39:45;13.25;;;6.45;;
59169;SDS011;52474;52.236;5.114;2022-10-20T02:42:11;12.60;;;7.03;;
59169;SDS011;52474;52.236;5.114;2022-10-20T02:44:37;13.30;;;6.90;;
59169;SDS011;52474;52.236;5.114;2022-10-20T02:47:03;12.85;;;7.40;;
59169;SDS011;52474;52.236;5.114;2022-10-20T02:49:28;13.43;;;7.20;;
59169;SDS011;52474;52.236;5.114;2022-10-20T02:51:54;15.63;;;8.18;;
59169;SDS011;52474;52.236;5.114;2022-10-20T02:54:20;15.98;;;7.57;;
59169;SDS011;52474;52.236;5.114;2022-10-20T02:56:46;15.18;;;7.30;;
59169;SDS011;52474;52.236;5.114;2022-10-20T02:59:13;15.98;;;8.38;;
59169;SDS011;52474;52.236;5.114;2022-10-20T03:01:41;13.75;;;7.53;;
59169;SDS011;52474;52.236;5.114;2022-10-20T03:04:07;15.05;;;7.85;;
59169;SDS011;52474;52.236;5.114;2022-10-20T03:06:33;14.27;;;7.70;;
59169;SDS011;52474;52.236;5.114;2022-10-20T03:09:00;15.13;;;8.52;;
59169;SDS011;52474;52.236;5.114;2022-10-20T03:11:26;13.20;;;8.00;;
59169;SDS011;52474;52.236;5.114;2022-10-20T03:13:51;14.05;;;7.90;;
59169;SDS011;52474;52.236;5.114;2022-10-20T03:16:17;12.75;;;7.72;;
59169;SDS011;52474;52.236;5.114;2022-10-20T03:18:44;13.10;;;7.90;;
59169;SDS011;52474;52.236;5.114;2022-10-20T03:21:10;15.40;;;8.18;;
59169;SDS011;52474;52.236;5.114;2022-10-20T03:23:36;12.70;;;7.00;;
59169;SDS011;52474;52.236;5.114;2022-10-20T03:26:02;15.43;;;8.27;;
59169;SDS011;52474;52.236;5.114;2022-10-20T03:28:30;16.83;;;8.48;;
59169;SDS011;52474;52.236;5.114;2022-10-20T03:30:56;17.23;;;8.75;;
59169;SDS011;52474;52.236;5.114;2022-10-20T03:33:22;21.20;;;8.80;;
59169;SDS011;52474;52.236;5.114;2022-10-20T03:35:48;16.55;;;8.65;;
59169;SDS011;52474;52.236;5.114;2022-10-20T03:38:14;16.17;;;7.10;;
59169;SDS011;52474;52.236;5.114;2022-10-20T03:40:40;12.38;;;7.78;;
59169;SDS011;52474;52.236;5.114;2022-10-20T03:43:06;14.82;;;8.55;;
59169;SDS011;52474;52.236;5.114;2022-10-20T03:45:31;16.45;;;7.78;;
59169;SDS011;52474;52.236;5.114;2022-10-20T03:47:57;16.65;;;8.07;;
59169;SDS011;52474;52.236;5.114;2022-10-20T03:50:23;19.80;;;8.40;;
59169;SDS011;52474;52.236;5.114;2022-10-20T03:52:49;20.70;;;8.25;;
59169;SDS011;52474;52.236;5.114;2022-10-20T03:55:15;15.73;;;8.93;;
59169;SDS011;52474;52.236;5.114;2022-10-20T03:57:42;22.00;;;8.50;;
59169;SDS011;52474;52.236;5.114;2022-10-20T04:00:08;15.55;;;8.57;;
59169;SDS011;52474;52.236;5.114;2022-10-20T04:02:42;14.38;;;7.80;;
59169;SDS011;52474;52.236;5.114;2022-10-20T04:05:11;15.57;;;7.50;;
59169;SDS011;52474;52.236;5.114;2022-10-20T04:07:41;15.38;;;8.23;;
59169;SDS011;52474;52.236;5.114;2022-10-20T04:10:08;15.40;;;8.95;;
59169;SDS011;52474;52.236;5.114;2022-10-20T04:12:35;14.18;;;8.07;;
59169;SDS011;52474;52.236;5.114;2022-10-20T04:15:01;15.52;;;8.25;;
59169;SDS011;52474;52.236;5.114;2022-10-20T04:17:28;14.80;;;8.57;;
59169;SDS011;52474;52.236;5.114;2022-10-20T04:19:54;22.17;;;7.93;;
59169;SDS011;52474;52.236;5.114;2022-10-20T04:22:20;15.27;;;8.13;;
59169;SDS011;52474;52.236;5.114;2022-10-20T04:24:45;14.10;;;7.85;;
59169;SDS011;52474;52.236;5.114;2022-10-20T04:27:11;12.63;;;8.30;;
59169;SDS011;52474;52.236;5.114;2022-10-20T04:29:37;16.88;;;8.50;;
59169;SDS011;52474;52.236;5.114;2022-10-20T04:32:03;18.15;;;8.98;;
59169;SDS011;52474;52.236;5.114;2022-10-20T04:34:29;14.00;;;8.40;;
59169;SDS011;52474;52.236;5.114;2022-10-20T04:36:54;15.88;;;8.30;;
59169;SDS011;52474;52.236;5.114;2022-10-20T04:39:20;16.40;;;8.75;;
59169;SDS011;52474;52.236;5.114;2022-10-20T04:41:46;18.08;;;8.27;;
59169;SDS011;52474;52.236;5.114;2022-10-20T04:44:12;15.85;;;8.40;;
59169;SDS011;52474;52.236;5.114;2022-10-20T04:46:38;14.07;;;8.02;;
59169;SDS011;52474;52.236;5.114;2022-10-20T04:49:03;14.80;;;8.13;;
59169;SDS011;52474;52.236;5.114;2022-10-20T04:51:29;20.13;;;9.20;;
59169;SDS011;52474;52.236;5.114;2022-10-20T04:53:55;16.15;;;7.95;;
59169;SDS011;52474;52.236;5.114;2022-10-20T04:56:21;20.25;;;8.80;;
59169;SDS011;52474;52.236;5.114;2022-10-20T04:58:51;17.48;;;8.93;;
59169;SDS011;52474;52.236;5.114;2022-10-20T05:01:19;16.85;;;9.13;;
59169;SDS011;52474;52.236;5.114;2022-10-20T05:03:47;19.13;;;8.90;;
59169;SDS011;52474;52.236;5.114;2022-10-20T05:06:14;17.58;;;9.23;;
59169;SDS011;52474;52.236;5.114;2022-10-20T05:08:45;14.52;;;8.52;;
59169;SDS011;52474;52.236;5.114;2022-10-20T05:11:13;15.38;;;8.48;;
59169;SDS011;52474;52.236;5.114;2022-10-20T05:13:40;16.05;;;9.13;;
59169;SDS011;52474;52.236;5.114;2022-10-20T05:16:07;19.15;;;8.95;;
59169;SDS011;52474;52.236;5.114;2022-10-20T05:18:33;14.82;;;8.75;;
59169;SDS011;52474;52.236;5.114;2022-10-20T05:21:04;15.10;;;8.20;;
59169;SDS011;52474;52.236;5.114;2022-10-20T05:23:31;19.20;;;8.82;;
59169;SDS011;52474;52.236;5.114;2022-10-20T05:26:00;16.42;;;8.23;;
59169;SDS011;52474;52.236;5.114;2022-10-20T05:28:27;16.65;;;8.95;;
59169;SDS011;52474;52.236;5.114;2022-10-20T05:30:59;15.57;;;8.88;;
59169;SDS011;52474;52.236;5.114;2022-10-20T05:33:28;16.02;;;8.18;;
59169;SDS011;52474;52.236;5.114;2022-10-20T05:35:54;18.20;;;8.60;;
59169;SDS011;52474;52.236;5.114;2022-10-20T05:38:21;17.08;;;8.65;;
59169;SDS011;52474;52.236;5.114;2022-10-20T05:40:47;18.65;;;8.93;;
59169;SDS011;52474;52.236;5.114;2022-10-20T05:43:12;20.50;;;9.65;;
59169;SDS011;52474;52.236;5.114;2022-10-20T05:45:38;16.27;;;8.65;;
59169;SDS011;52474;52.236;5.114;2022-10-20T05:48:04;16.55;;;8.70;;
59169;SDS011;52474;52.236;5.114;2022-10-20T05:50:30;16.98;;;9.75;;
59169;SDS011;52474;52.236;5.114;2022-10-20T05:52:56;18.10;;;9.20;;
59169;SDS011;52474;52.236;5.114;2022-10-20T05:55:23;15.48;;;8.57;;
59169;SDS011;52474;52.236;5.114;2022-10-20T05:57:49;19.85;;;9.43;;
59169;SDS011;52474;52.236;5.114;2022-10-20T06:00:16;18.50;;;10.60;;
59169;SDS011;52474;52.236;5.114;2022-10-20T06:02:43;17.33;;;9.65;;
59169;SDS011;52474;52.236;5.114;2022-10-20T06:05:09;18.60;;;9.00;;
59169;SDS011;52474;52.236;5.114;2022-10-20T06:07:35;20.83;;;9.25;;
59169;SDS011;52474;52.236;5.114;2022-10-20T06:10:01;14.13;;;9.02;;
59169;SDS011;52474;52.236;5.114;2022-10-20T06:12:28;16.70;;;9.32;;
59169;SDS011;52474;52.236;5.114;2022-10-20T06:14:54;16.67;;;9.63;;
59169;SDS011;52474;52.236;5.114;2022-10-20T06:17:23;15.07;;;8.88;;
59169;SDS011;52474;52.236;5.114;2022-10-20T06:19:50;18.00;;;9.43;;
59169;SDS011;52474;52.236;5.114;2022-10-20T06:22:15;17.20;;;9.32;;
59169;SDS011;52474;52.236;5.114;2022-10-20T06:24:41;20.02;;;9.50;;
59169;SDS011;52474;52.236;5.114;2022-10-20T06:27:07;17.55;;;9.05;;
59169;SDS011;52474;52.236;5.114;2022-10-20T06:29:33;16.40;;;9.00;;
59169;SDS011;52474;52.236;5.114;2022-10-20T06:31:58;17.85;;;9.00;;
59169;SDS011;52474;52.236;5.114;2022-10-20T06:34:24;19.73;;;10.30;;
59169;SDS011;52474;52.236;5.114;2022-10-20T06:36:50;15.57;;;9.38;;
59169;SDS011;52474;52.236;5.114;2022-10-20T06:39:18;16.90;;;9.35;;
59169;SDS011;52474;52.236;5.114;2022-10-20T06:41:49;15.90;;;9.43;;
59169;SDS011;52474;52.236;5.114;2022-10-20T06:46:46;20.10;;;9.35;;
59169;SDS011;52474;52.236;5.114;2022-10-20T06:49:12;19.05;;;9.10;;
59169;SDS011;52474;52.236;5.114;2022-10-20T06:51:39;18.42;;;10.02;;
59169;SDS011;52474;52.236;5.114;2022-10-20T06:54:05;18.58;;;9.52;;
59169;SDS011;52474;52.236;5.114;2022-10-20T06:56:32;15.85;;;9.40;;
59169;SDS011;52474;52.236;5.114;2022-10-20T06:58:59;22.98;;;10.60;;
59169;SDS011;52474;52.236;5.114;2022-10-20T07:01:27;18.40;;;9.32;;
59169;SDS011;52474;52.236;5.114;2022-10-20T07:03:58;18.10;;;10.77;;
59169;SDS011;52474;52.236;5.114;2022-10-20T07:06:32;17.98;;;9.73;;
59169;SDS011;52474;52.236;5.114;2022-10-20T07:09:00;18.15;;;9.57;;
59169;SDS011;52474;52.236;5.114;2022-10-20T07:11:30;16.23;;;10.02;;
59169;SDS011;52474;52.236;5.114;2022-10-20T07:13:57;19.15;;;10.38;;
59169;SDS011;52474;52.236;5.114;2022-10-20T07:16:24;16.95;;;9.27;;
59169;SDS011;52474;52.236;5.114;2022-10-20T07:18:52;20.63;;;10.52;;
59169;SDS011;52474;52.236;5.114;2022-10-20T07:21:19;16.92;;;9.85;;
59169;SDS011;52474;52.236;5.114;2022-10-20T07:23:47;19.90;;;9.57;;
59169;SDS011;52474;52.236;5.114;2022-10-20T07:26:15;17.35;;;9.20;;
59169;SDS011;52474;52.236;5.114;2022-10-20T07:28:47;19.02;;;9.02;;
59169;SDS011;52474;52.236;5.114;2022-10-20T07:31:15;17.17;;;9.57;;
59169;SDS011;52474;52.236;5.114;2022-10-20T07:33:43;18.63;;;9.93;;
59169;SDS011;52474;52.236;5.114;2022-10-20T07:38:43;17.02;;;9.38;;
59169;SDS011;52474;52.236;5.114;2022-10-20T07:41:09;16.75;;;9.50;;
59169;SDS011;52474;52.236;5.114;2022-10-20T07:43:36;16.65;;;9.95;;
59169;SDS011;52474;52.236;5.114;2022-10-20T07:46:03;20.00;;;10.30;;
59169;SDS011;52474;52.236;5.114;2022-10-20T07:48:30;17.65;;;9.25;;
59169;SDS011;52474;52.236;5.114;2022-10-20T07:53:41;15.95;;;9.70;;
59169;SDS011;52474;52.236;5.114;2022-10-20T07:56:08;18.23;;;9.38;;
59169;SDS011;52474;52.236;5.114;2022-10-20T07:58:34;16.40;;;9.35;;
59169;SDS011;52474;52.236;5.114;2022-10-20T08:00:59;16.90;;;9.20;;
59169;SDS011;52474;52.236;5.114;2022-10-20T08:03:25;19.05;;;9.77;;
59169;SDS011;52474;52.236;5.114;2022-10-20T08:05:51;14.40;;;9.25;;
59169;SDS011;52474;52.236;5.114;2022-10-20T08:08:17;20.63;;;9.80;;
59169;SDS011;52474;52.236;5.114;2022-10-20T08:10:42;17.13;;;9.18;;
59169;SDS011;52474;52.236;5.114;2022-10-20T08:13:08;13.45;;;9.00;;
59169;SDS011;52474;52.236;5.114;2022-10-20T08:15:34;16.42;;;9.75;;
59169;SDS011;52474;52.236;5.114;2022-10-20T08:18:00;16.90;;;9.52;;
59169;SDS011;52474;52.236;5.114;2022-10-20T08:20:26;16.90;;;8.60;;
59169;SDS011;52474;52.236;5.114;2022-10-20T08:22:52;15.57;;;8.95;;
59169;SDS011;52474;52.236;5.114;2022-10-20T08:25:18;15.52;;;8.73;;
59169;SDS011;52474;52.236;5.114;2022-10-20T08:27:44;17.52;;;8.80;;
59169;SDS011;52474;52.236;5.114;2022-10-20T08:30:09;19.38;;;9.55;;
59169;SDS011;52474;52.236;5.114;2022-10-20T08:32:35;16.10;;;8.95;;
59169;SDS011;52474;52.236;5.114;2022-10-20T08:35:01;15.98;;;9.38;;
59169;SDS011;52474;52.236;5.114;2022-10-20T08:37:31;18.48;;;9.57;;
59169;SDS011;52474;52.236;5.114;2022-10-20T08:39:57;16.52;;;9.23;;
59169;SDS011;52474;52.236;5.114;2022-10-20T08:42:23;17.05;;;8.52;;
59169;SDS011;52474;52.236;5.114;2022-10-20T08:44:50;16.58;;;9.20;;
59169;SDS011;52474;52.236;5.114;2022-10-20T08:47:26;17.25;;;8.88;;
59169;SDS011;52474;52.236;5.114;2022-10-20T08:49:56;15.18;;;8.90;;
59169;SDS011;52474;52.236;5.114;2022-10-20T08:52:24;13.73;;;8.63;;
59169;SDS011;52474;52.236;5.114;2022-10-20T08:54:52;15.88;;;9.27;;
59169;SDS011;52474;52.236;5.114;2022-10-20T08:57:20;12.60;;;8.10;;
59169;SDS011;52474;52.236;5.114;2022-10-20T08:59:50;15.13;;;8.80;;
59169;SDS011;52474;52.236;5.114;2022-10-20T09:02:17;13.00;;;7.88;;
59169;SDS011;52474;52.236;5.114;2022-10-20T09:04:51;15.32;;;9.30;;
59169;SDS011;52474;52.236;5.114;2022-10-20T09:09:50;16.42;;;8.95;;
59169;SDS011;52474;52.236;5.114;2022-10-20T09:12:16;13.98;;;8.52;;
59169;SDS011;52474;52.236;5.114;2022-10-20T09:14:44;12.32;;;8.25;;
59169;SDS011;52474;52.236;5.114;2022-10-20T09:17:14;14.60;;;8.90;;
59169;SDS011;52474;52.236;5.114;2022-10-20T09:19:43;14.32;;;7.63;;
59169;SDS011;52474;52.236;5.114;2022-10-20T09:22:13;14.52;;;7.88;;
59169;SDS011;52474;52.236;5.114;2022-10-20T09:24:39;12.43;;;8.57;;
59169;SDS011;52474;52.236;5.114;2022-10-20T09:27:49;13.02;;;8.32;;
59169;SDS011;52474;52.236;5.114;2022-10-20T09:30:11;14.65;;;8.35;;
59169;SDS011;52474;52.236;5.114;2022-10-20T09:32:52;16.20;;;8.65;;
59169;SDS011;52474;52.236;5.114;2022-10-20T09:35:30;16.48;;;8.50;;
59169;SDS011;52474;52.236;5.114;2022-10-20T09:38:01;14.02;;;8.45;;
59169;SDS011;52474;52.236;5.114;2022-10-20T09:43:46;15.30;;;8.52;;
59169;SDS011;52474;52.236;5.114;2022-10-20T09:46:20;14.32;;;8.68;;
59169;SDS011;52474;52.236;5.114;2022-10-20T09:48:51;14.43;;;8.20;;
59169;SDS011;52474;52.236;5.114;2022-10-20T09:51:24;14.33;;;9.10;;
59169;SDS011;52474;52.236;5.114;2022-10-20T09:56:27;16.70;;;9.32;;
59169;SDS011;52474;52.236;5.114;2022-10-20T09:58:57;13.35;;;8.40;;
59169;SDS011;52474;52.236;5.114;2022-10-20T10:01:25;15.10;;;9.57;;
59169;SDS011;52474;52.236;5.114;2022-10-20T10:03:52;15.27;;;9.00;;
59169;SDS011;52474;52.236;5.114;2022-10-20T10:09:25;14.20;;;8.07;;
59169;SDS011;52474;52.236;5.114;2022-10-20T10:14:27;14.70;;;9.32;;
59169;SDS011;52474;52.236;5.114;2022-10-20T10:16:53;13.88;;;8.98;;
59169;SDS011;52474;52.236;5.114;2022-10-20T10:19:19;17.40;;;9.70;;
59169;SDS011;52474;52.236;5.114;2022-10-20T10:21:51;15.75;;;10.05;;
59169;SDS011;52474;52.236;5.114;2022-10-20T10:27:00;16.60;;;9.95;;
59169;SDS011;52474;52.236;5.114;2022-10-20T10:29:33;17.52;;;9.93;;
59169;SDS011;52474;52.236;5.114;2022-10-20T10:32:01;17.60;;;10.43;;
59169;SDS011;52474;52.236;5.114;2022-10-20T10:37:21;17.10;;;10.13;;
59169;SDS011;52474;52.236;5.114;2022-10-20T10:39:47;16.25;;;9.68;;
59169;SDS011;52474;52.236;5.114;2022-10-20T10:42:24;19.55;;;10.68;;
59169;SDS011;52474;52.236;5.114;2022-10-20T10:47:49;17.58;;;9.80;;
59169;SDS011;52474;52.236;5.114;2022-10-20T10:56:16;17.70;;;11.15;;
59169;SDS011;52474;52.236;5.114;2022-10-20T10:58:52;21.80;;;11.60;;
59169;SDS011;52474;52.236;5.114;2022-10-20T11:06:56;17.98;;;11.10;;
59169;SDS011;52474;52.236;5.114;2022-10-20T11:21:47;20.48;;;12.52;;
59169;SDS011;52474;52.236;5.114;2022-10-20T11:27:12;20.95;;;11.45;;
59169;SDS011;52474;52.236;5.114;2022-10-20T11:29:48;19.83;;;11.77;;
59169;SDS011;52474;52.236;5.114;2022-10-20T11:35:00;22.25;;;11.98;;
59169;SDS011;52474;52.236;5.114;2022-10-20T11:40:25;22.70;;;13.20;;
59169;SDS011;52474;52.236;5.114;2022-10-20T11:43:11;22.55;;;12.70;;
59169;SDS011;52474;52.236;5.114;2022-10-20T11:45:46;24.90;;;13.80;;
59169;SDS011;52474;52.236;5.114;2022-10-20T11:50:57;23.90;;;13.23;;
59169;SDS011;52474;52.236;5.114;2022-10-20T12:02:13;29.30;;;14.75;;
59169;SDS011;52474;52.236;5.114;2022-10-20T12:14:00;29.70;;;15.15;;
59169;SDS011;52474;52.236;5.114;2022-10-20T12:19:19;26.83;;;15.02;;
59169;SDS011;52474;52.236;5.114;2022-10-20T12:27:19;25.23;;;14.95;;
59169;SDS011;52474;52.236;5.114;2022-10-20T12:29:51;27.17;;;15.43;;
59169;SDS011;52474;52.236;5.114;2022-10-20T12:35:26;28.35;;;13.45;;
59169;SDS011;52474;52.236;5.114;2022-10-20T12:37:56;35.22;;;16.27;;
59169;SDS011;52474;52.236;5.114;2022-10-20T12:40:32;28.80;;;14.60;;
59169;SDS011;52474;52.236;5.114;2022-10-20T12:48:19;28.73;;;15.13;;
59169;SDS011;52474;52.236;5.114;2022-10-20T12:50:47;37.47;;;16.42;;
59169;SDS011;52474;52.236;5.114;2022-10-20T12:53:22;30.88;;;16.05;;
59169;SDS011;52474;52.236;5.114;2022-10-20T12:55:52;28.73;;;16.48;;
59169;SDS011;52474;52.236;5.114;2022-10-20T13:14:12;34.70;;;17.45;;
59169;SDS011;52474;52.236;5.114;2022-10-20T13:16:55;33.30;;;17.85;;
59169;SDS011;52474;52.236;5.114;2022-10-20T13:19:45;41.35;;;18.63;;
59169;SDS011;52474;52.236;5.114;2022-10-20T13:22:26;36.38;;;17.88;;
59169;SDS011;52474;52.236;5.114;2022-10-20T13:25:01;34.92;;;16.63;;
59169;SDS011;52474;52.236;5.114;2022-10-20T13:27:29;30.05;;;14.90;;
59169;SDS011;52474;52.236;5.114;2022-10-20T13:29:55;29.00;;;16.70;;
59169;SDS011;52474;52.236;5.114;2022-10-20T13:32:32;30.65;;;16.08;;
59169;SDS011;52474;52.236;5.114;2022-10-20T13:38:04;27.73;;;16.13;;
59169;SDS011;52474;52.236;5.114;2022-10-20T13:51:46;32.70;;;15.73;;
59169;SDS011;52474;52.236;5.114;2022-10-20T13:56:46;30.75;;;16.52;;
59169;SDS011;52474;52.236;5.114;2022-10-20T14:01:49;35.45;;;16.92;;
59169;SDS011;52474;52.236;5.114;2022-10-20T14:04:33;33.78;;;18.45;;
59169;SDS011;52474;52.236;5.114;2022-10-20T14:07:11;35.35;;;18.85;;
59169;SDS011;52474;52.236;5.114;2022-10-20T14:09:38;28.98;;;16.95;;
59169;SDS011;52474;52.236;5.114;2022-10-20T14:12:17;33.42;;;17.77;;
59169;SDS011;52474;52.236;5.114;2022-10-20T14:14:50;32.45;;;18.27;;
59169;SDS011;52474;52.236;5.114;2022-10-20T14:19:47;34.35;;;17.98;;
59169;SDS011;52474;52.236;5.114;2022-10-20T14:24:43;33.28;;;18.65;;
59169;SDS011;52474;52.236;5.114;2022-10-20T14:27:17;31.88;;;17.67;;
59169;SDS011;52474;52.236;5.114;2022-10-20T14:29:48;31.63;;;18.02;;
59169;SDS011;52474;52.236;5.114;2022-10-20T14:32:17;33.20;;;17.42;;
59169;SDS011;52474;52.236;5.114;2022-10-20T14:34:52;36.95;;;18.95;;
59169;SDS011;52474;52.236;5.114;2022-10-20T14:37:27;31.10;;;16.83;;
59169;SDS011;52474;52.236;5.114;2022-10-20T14:40:02;32.25;;;16.48;;
59169;SDS011;52474;52.236;5.114;2022-10-20T14:42:31;32.15;;;17.58;;
59169;SDS011;52474;52.236;5.114;2022-10-20T14:44:58;29.33;;;17.27;;
59169;SDS011;52474;52.236;5.114;2022-10-20T14:47:28;36.33;;;18.60;;
59169;SDS011;52474;52.236;5.114;2022-10-20T14:49:58;33.33;;;17.73;;
59169;SDS011;52474;52.236;5.114;2022-10-20T14:52:27;36.00;;;18.05;;
59169;SDS011;52474;52.236;5.114;2022-10-20T14:54:55;30.52;;;17.90;;
59169;SDS011;52474;52.236;5.114;2022-10-20T14:57:29;35.20;;;18.25;;
59169;SDS011;52474;52.236;5.114;2022-10-20T15:02:54;29.20;;;16.63;;
59169;SDS011;52474;52.236;5.114;2022-10-20T15:05:22;30.35;;;17.80;;
59169;SDS011;52474;52.236;5.114;2022-10-20T15:07:51;30.85;;;17.92;;
59169;SDS011;52474;52.236;5.114;2022-10-20T15:10:24;31.67;;;17.58;;
59169;SDS011;52474;52.236;5.114;2022-10-20T15:12:52;30.40;;;18.55;;
59169;SDS011;52474;52.236;5.114;2022-10-20T15:15:21;31.02;;;17.88;;
59169;SDS011;52474;52.236;5.114;2022-10-20T15:23:05;34.03;;;18.35;;
59169;SDS011;52474;52.236;5.114;2022-10-20T15:30:55;36.15;;;18.52;;
59169;SDS011;52474;52.236;5.114;2022-10-20T15:33:23;43.00;;;20.08;;
59169;SDS011;52474;52.236;5.114;2022-10-20T15:35:51;37.65;;;20.38;;
59169;SDS011;52474;52.236;5.114;2022-10-20T15:38:18;32.95;;;18.20;;
59169;SDS011;52474;52.236;5.114;2022-10-20T15:40:44;39.28;;;19.58;;
59169;SDS011;52474;52.236;5.114;2022-10-20T15:43:14;42.95;;;19.67;;
59169;SDS011;52474;52.236;5.114;2022-10-20T15:45:45;38.85;;;19.60;;
59169;SDS011;52474;52.236;5.114;2022-10-20T15:48:13;34.92;;;19.20;;
59169;SDS011;52474;52.236;5.114;2022-10-20T15:50:39;34.75;;;20.55;;
59169;SDS011;52474;52.236;5.114;2022-10-20T15:53:06;37.83;;;20.20;;
59169;SDS011;52474;52.236;5.114;2022-10-20T15:55:33;37.67;;;18.55;;
59169;SDS011;52474;52.236;5.114;2022-10-20T15:58:02;38.17;;;19.63;;
59169;SDS011;52474;52.236;5.114;2022-10-20T16:00:27;35.88;;;19.42;;
59169;SDS011;52474;52.236;5.114;2022-10-20T16:02:54;38.80;;;19.23;;
59169;SDS011;52474;52.236;5.114;2022-10-20T16:05:21;35.85;;;18.38;;
59169;SDS011;52474;52.236;5.114;2022-10-20T16:07:48;35.88;;;19.30;;
59169;SDS011;52474;52.236;5.114;2022-10-20T16:10:17;36.75;;;18.70;;
59169;SDS011;52474;52.236;5.114;2022-10-20T16:12:43;36.50;;;20.67;;
59169;SDS011;52474;52.236;5.114;2022-10-20T16:15:09;37.03;;;19.48;;
59169;SDS011;52474;52.236;5.114;2022-10-20T16:17:35;40.67;;;19.45;;
59169;SDS011;52474;52.236;5.114;2022-10-20T16:20:02;37.15;;;20.65;;
59169;SDS011;52474;52.236;5.114;2022-10-20T16:22:30;40.00;;;20.75;;
59169;SDS011;52474;52.236;5.114;2022-10-20T16:24:55;43.30;;;20.60;;
59169;SDS011;52474;52.236;5.114;2022-10-20T16:27:26;40.10;;;20.00;;
59169;SDS011;52474;52.236;5.114;2022-10-20T16:29:56;41.95;;;19.95;;
59169;SDS011;52474;52.236;5.114;2022-10-20T16:32:22;38.35;;;20.90;;
59169;SDS011;52474;52.236;5.114;2022-10-20T16:34:48;39.70;;;21.33;;
59169;SDS011;52474;52.236;5.114;2022-10-20T16:37:14;36.97;;;20.25;;
59169;SDS011;52474;52.236;5.114;2022-10-20T16:39:40;44.92;;;22.83;;
59169;SDS011;52474;52.236;5.114;2022-10-20T16:42:05;40.78;;;21.63;;
59169;SDS011;52474;52.236;5.114;2022-10-20T16:44:31;41.40;;;20.90;;
59169;SDS011;52474;52.236;5.114;2022-10-20T16:46:57;44.90;;;20.25;;
59169;SDS011;52474;52.236;5.114;2022-10-20T16:49:23;43.80;;;21.60;;
59169;SDS011;52474;52.236;5.114;2022-10-20T16:51:49;40.38;;;22.42;;
59169;SDS011;52474;52.236;5.114;2022-10-20T16:54:16;42.05;;;20.35;;
59169;SDS011;52474;52.236;5.114;2022-10-20T16:56:42;45.45;;;22.38;;
59169;SDS011;52474;52.236;5.114;2022-10-20T16:59:10;42.30;;;21.65;;
59169;SDS011;52474;52.236;5.114;2022-10-20T17:01:36;39.35;;;19.00;;
59169;SDS011;52474;52.236;5.114;2022-10-20T17:04:01;41.88;;;20.48;;
59169;SDS011;52474;52.236;5.114;2022-10-20T17:06:28;39.67;;;20.45;;
59169;SDS011;52474;52.236;5.114;2022-10-20T17:08:54;46.75;;;21.35;;
59169;SDS011;52474;52.236;5.114;2022-10-20T17:11:24;48.20;;;23.20;;
59169;SDS011;52474;52.236;5.114;2022-10-20T17:13:53;42.42;;;20.98;;
59169;SDS011;52474;52.236;5.114;2022-10-20T17:16:20;41.88;;;20.63;;
59169;SDS011;52474;52.236;5.114;2022-10-20T17:18:48;41.35;;;20.75;;
59169;SDS011;52474;52.236;5.114;2022-10-20T17:21:13;43.53;;;21.63;;
59169;SDS011;52474;52.236;5.114;2022-10-20T17:23:41;40.53;;;20.20;;
59169;SDS011;52474;52.236;5.114;2022-10-20T17:26:10;42.22;;;21.10;;
59169;SDS011;52474;52.236;5.114;2022-10-20T17:28:38;44.40;;;21.33;;
59169;SDS011;52474;52.236;5.114;2022-10-20T17:31:04;43.88;;;19.88;;
59169;SDS011;52474;52.236;5.114;2022-10-20T17:33:31;43.03;;;21.70;;